sensor_id;sensor_type;location;lat;lon;timestamp;P1;durP1;ratioP1;P2;durP2;ratioP2
75508;SDS011;64214;47.250;11.332;2023-03-04T00:00:09;23.92;;;14.32;;
75508;SDS011;64214;47.250;11.332;2023-03-04T00:00:21;25.15;;;14.60;;
75508;SDS011;64214;47.250;11.332;2023-03-04T00:00:33;25.70;;;14.63;;
75508;SDS011;64214;47.250;11.332;2023-03-04T00:00:44;25.33;;;14.63;;
75508;SDS011;64214;47.250;11.332;2023-03-04T00:00:57;25.95;;;13.98;;
75508;SDS011;64214;47.250;11.332;2023-03-04T00:01:08;25.67;;;14.13;;
75508;SDS011;64214;47.250;11.332;2023-03-04T00:01:19;24.08;;;14.05;;
75508;SDS011;64214;47.250;11.332;2023-03-04T00:01:30;25.00;;;14.60;;
75508;SDS011;64214;47.250;11.332;2023-03-04T00:01:41;24.95;;;14.00;;
75508;SDS011;64214;47.250;11.332;2023-03-04T00:01:53;24.55;;;14.05;;
75508;SDS011;64214;47.250;11.332;2023-03-04T00:02:04;22.85;;;13.60;;
75508;SDS011;64214;47.250;11.332;2023-03-04T00:02:15;24.23;;;14.23;;
75508;SDS011;64214;47.250;11.332;2023-03-04T00:02:26;25.88;;;14.23;;
75508;SDS011;64214;47.250;11.332;2023-03-04T00:02:38;25.45;;;13.90;;
75508;SDS011;64214;47.250;11.332;2023-03-04T00:02:49;24.83;;;13.38;;
75508;SDS011;64214;47.250;11.332;2023-03-04T00:03:00;24.13;;;13.38;;
75508;SDS011;64214;47.250;11.332;2023-03-04T00:03:11;23.33;;;13.00;;
75508;SDS011;64214;47.250;11.332;2023-03-04T00:03:24;22.40;;;13.07;;
75508;SDS011;64214;47.250;11.332;2023-03-04T00:03:36;22.58;;;13.43;;
75508;SDS011;64214;47.250;11.332;2023-03-04T00:03:47;23.27;;;13.90;;
75508;SDS011;64214;47.250;11.332;2023-03-04T00:03:58;22.13;;;13.65;;
75508;SDS011;64214;47.250;11.332;2023-03-04T00:04:09;23.13;;;13.70;;
75508;SDS011;64214;47.250;11.332;2023-03-04T00:04:20;23.65;;;13.70;;
75508;SDS011;64214;47.250;11.332;2023-03-04T00:04:31;24.75;;;13.98;;
75508;SDS011;64214;47.250;11.332;2023-03-04T00:04:42;25.98;;;13.80;;
75508;SDS011;64214;47.250;11.332;2023-03-04T00:04:53;26.00;;;13.57;;
75508;SDS011;64214;47.250;11.332;2023-03-04T00:05:05;23.05;;;13.13;;
75508;SDS011;64214;47.250;11.332;2023-03-04T00:05:16;22.65;;;13.18;;
75508;SDS011;64214;47.250;11.332;2023-03-04T00:05:27;23.00;;;13.98;;
75508;SDS011;64214;47.250;11.332;2023-03-04T00:05:40;23.75;;;14.18;;
75508;SDS011;64214;47.250;11.332;2023-03-04T00:05:51;23.33;;;14.13;;
75508;SDS011;64214;47.250;11.332;2023-03-04T00:06:03;23.55;;;13.80;;
75508;SDS011;64214;47.250;11.332;2023-03-04T00:06:14;24.65;;;14.02;;
75508;SDS011;64214;47.250;11.332;2023-03-04T00:06:25;24.08;;;13.90;;
75508;SDS011;64214;47.250;11.332;2023-03-04T00:06:37;25.20;;;14.30;;
75508;SDS011;64214;47.250;11.332;2023-03-04T00:06:48;25.55;;;14.10;;
75508;SDS011;64214;47.250;11.332;2023-03-04T00:06:59;25.05;;;14.18;;
75508;SDS011;64214;47.250;11.332;2023-03-04T00:07:10;23.67;;;13.98;;
75508;SDS011;64214;47.250;11.332;2023-03-04T00:07:26;24.83;;;13.98;;
75508;SDS011;64214;47.250;11.332;2023-03-04T00:07:37;24.60;;;14.18;;
75508;SDS011;64214;47.250;11.332;2023-03-04T00:07:48;25.85;;;13.88;;
75508;SDS011;64214;47.250;11.332;2023-03-04T00:07:59;25.42;;;13.48;;
75508;SDS011;64214;47.250;11.332;2023-03-04T00:08:10;25.90;;;13.65;;
75508;SDS011;64214;47.250;11.332;2023-03-04T00:08:21;24.27;;;13.98;;
75508;SDS011;64214;47.250;11.332;2023-03-04T00:08:33;23.63;;;14.02;;
75508;SDS011;64214;47.250;11.332;2023-03-04T00:08:44;24.27;;;14.35;;
75508;SDS011;64214;47.250;11.332;2023-03-04T00:08:55;25.88;;;14.32;;
75508;SDS011;64214;47.250;11.332;2023-03-04T00:09:06;23.73;;;13.75;;
75508;SDS011;64214;47.250;11.332;2023-03-04T00:09:17;23.58;;;13.35;;
75508;SDS011;64214;47.250;11.332;2023-03-04T00:09:29;22.17;;;13.10;;
75508;SDS011;64214;47.250;11.332;2023-03-04T00:09:40;24.00;;;13.43;;
75508;SDS011;64214;47.250;11.332;2023-03-04T00:09:51;26.33;;;14.07;;
75508;SDS011;64214;47.250;11.332;2023-03-04T00:10:03;26.33;;;14.40;;
75508;SDS011;64214;47.250;11.332;2023-03-04T00:10:14;25.83;;;14.40;;
75508;SDS011;64214;47.250;11.332;2023-03-04T00:10:26;24.60;;;14.40;;
75508;SDS011;64214;47.250;11.332;2023-03-04T00:10:37;25.20;;;14.13;;
75508;SDS011;64214;47.250;11.332;2023-03-04T00:10:48;25.48;;;13.95;;
75508;SDS011;64214;47.250;11.332;2023-03-04T00:10:59;25.10;;;14.17;;
75508;SDS011;64214;47.250;11.332;2023-03-04T00:11:11;23.98;;;14.07;;
75508;SDS011;64214;47.250;11.332;2023-03-04T00:11:22;23.40;;;13.88;;
75508;SDS011;64214;47.250;11.332;2023-03-04T00:11:33;25.67;;;14.13;;
75508;SDS011;64214;47.250;11.332;2023-03-04T00:11:44;25.50;;;14.18;;
75508;SDS011;64214;47.250;11.332;2023-03-04T00:11:56;26.20;;;13.98;;
75508;SDS011;64214;47.250;11.332;2023-03-04T00:12:07;26.45;;;13.90;;
75508;SDS011;64214;47.250;11.332;2023-03-04T00:12:18;26.20;;;13.52;;
75508;SDS011;64214;47.250;11.332;2023-03-04T00:12:29;25.60;;;13.77;;
75508;SDS011;64214;47.250;11.332;2023-03-04T00:12:40;24.60;;;13.90;;
75508;SDS011;64214;47.250;11.332;2023-03-04T00:12:51;25.08;;;14.05;;
75508;SDS011;64214;47.250;11.332;2023-03-04T00:13:03;22.67;;;13.82;;
75508;SDS011;64214;47.250;11.332;2023-03-04T00:13:14;24.50;;;13.60;;
75508;SDS011;64214;47.250;11.332;2023-03-04T00:13:26;23.48;;;13.55;;
75508;SDS011;64214;47.250;11.332;2023-03-04T00:13:37;23.80;;;13.35;;
75508;SDS011;64214;47.250;11.332;2023-03-04T00:13:48;23.42;;;13.70;;
75508;SDS011;64214;47.250;11.332;2023-03-04T00:14:00;24.73;;;14.35;;
75508;SDS011;64214;47.250;11.332;2023-03-04T00:14:11;23.95;;;14.38;;
75508;SDS011;64214;47.250;11.332;2023-03-04T00:14:22;24.17;;;14.13;;
75508;SDS011;64214;47.250;11.332;2023-03-04T00:14:33;24.58;;;14.13;;
75508;SDS011;64214;47.250;11.332;2023-03-04T00:14:44;24.58;;;13.90;;
75508;SDS011;64214;47.250;11.332;2023-03-04T00:14:55;23.38;;;13.90;;
75508;SDS011;64214;47.250;11.332;2023-03-04T00:15:07;23.85;;;13.30;;
75508;SDS011;64214;47.250;11.332;2023-03-04T00:15:18;23.70;;;13.25;;
75508;SDS011;64214;47.250;11.332;2023-03-04T00:15:29;24.85;;;13.60;;
75508;SDS011;64214;47.250;11.332;2023-03-04T00:15:41;23.23;;;13.75;;
75508;SDS011;64214;47.250;11.332;2023-03-04T00:15:52;22.48;;;13.77;;
75508;SDS011;64214;47.250;11.332;2023-03-04T00:16:03;21.55;;;13.30;;
75508;SDS011;64214;47.250;11.332;2023-03-04T00:16:14;23.95;;;13.95;;
75508;SDS011;64214;47.250;11.332;2023-03-04T00:16:26;25.00;;;13.68;;
75508;SDS011;64214;47.250;11.332;2023-03-04T00:16:37;25.10;;;14.07;;
75508;SDS011;64214;47.250;11.332;2023-03-04T00:16:48;23.80;;;13.55;;
75508;SDS011;64214;47.250;11.332;2023-03-04T00:16:59;23.58;;;13.82;;
75508;SDS011;64214;47.250;11.332;2023-03-04T00:17:13;23.60;;;13.15;;
75508;SDS011;64214;47.250;11.332;2023-03-04T00:17:24;23.42;;;13.23;;
75508;SDS011;64214;47.250;11.332;2023-03-04T00:17:35;23.42;;;13.70;;
75508;SDS011;64214;47.250;11.332;2023-03-04T00:17:46;23.48;;;14.07;;
75508;SDS011;64214;47.250;11.332;2023-03-04T00:17:57;24.55;;;14.07;;
75508;SDS011;64214;47.250;11.332;2023-03-04T00:18:09;24.67;;;13.77;;
75508;SDS011;64214;47.250;11.332;2023-03-04T00:18:20;23.95;;;13.15;;
75508;SDS011;64214;47.250;11.332;2023-03-04T00:18:31;25.40;;;13.07;;
75508;SDS011;64214;47.250;11.332;2023-03-04T00:18:42;25.17;;;13.02;;
75508;SDS011;64214;47.250;11.332;2023-03-04T00:18:53;25.80;;;13.80;;
75508;SDS011;64214;47.250;11.332;2023-03-04T00:19:05;25.83;;;14.27;;
75508;SDS011;64214;47.250;11.332;2023-03-04T00:19:16;27.35;;;14.93;;
75508;SDS011;64214;47.250;11.332;2023-03-04T00:19:27;25.10;;;14.33;;
75508;SDS011;64214;47.250;11.332;2023-03-04T00:19:38;23.50;;;14.00;;
75508;SDS011;64214;47.250;11.332;2023-03-04T00:19:49;21.50;;;13.73;;
75508;SDS011;64214;47.250;11.332;2023-03-04T00:20:01;22.30;;;14.30;;
75508;SDS011;64214;47.250;11.332;2023-03-04T00:20:12;24.40;;;15.13;;
75508;SDS011;64214;47.250;11.332;2023-03-04T00:20:23;25.67;;;15.38;;
75508;SDS011;64214;47.250;11.332;2023-03-04T00:20:34;24.50;;;14.77;;
75508;SDS011;64214;47.250;11.332;2023-03-04T00:20:46;23.38;;;14.07;;
75508;SDS011;64214;47.250;11.332;2023-03-04T00:20:57;22.73;;;13.90;;
75508;SDS011;64214;47.250;11.332;2023-03-04T00:21:08;22.48;;;13.85;;
75508;SDS011;64214;47.250;11.332;2023-03-04T00:21:19;24.05;;;14.57;;
75508;SDS011;64214;47.250;11.332;2023-03-04T00:21:30;26.88;;;14.95;;
75508;SDS011;64214;47.250;11.332;2023-03-04T00:21:42;27.58;;;15.13;;
75508;SDS011;64214;47.250;11.332;2023-03-04T00:21:53;27.15;;;14.68;;
75508;SDS011;64214;47.250;11.332;2023-03-04T00:22:06;26.35;;;15.27;;
75508;SDS011;64214;47.250;11.332;2023-03-04T00:22:18;25.70;;;15.90;;
75508;SDS011;64214;47.250;11.332;2023-03-04T00:22:29;25.90;;;15.68;;
75508;SDS011;64214;47.250;11.332;2023-03-04T00:22:40;25.35;;;14.82;;
75508;SDS011;64214;47.250;11.332;2023-03-04T00:22:51;26.70;;;14.25;;
75508;SDS011;64214;47.250;11.332;2023-03-04T00:23:02;26.85;;;14.43;;
75508;SDS011;64214;47.250;11.332;2023-03-04T00:23:13;26.48;;;14.55;;
75508;SDS011;64214;47.250;11.332;2023-03-04T00:23:25;25.48;;;14.55;;
75508;SDS011;64214;47.250;11.332;2023-03-04T00:23:36;24.73;;;14.07;;
75508;SDS011;64214;47.250;11.332;2023-03-04T00:23:47;24.50;;;14.50;;
75508;SDS011;64214;47.250;11.332;2023-03-04T00:23:58;24.40;;;14.73;;
75508;SDS011;64214;47.250;11.332;2023-03-04T00:24:09;25.63;;;15.18;;
75508;SDS011;64214;47.250;11.332;2023-03-04T00:24:20;27.00;;;15.60;;
75508;SDS011;64214;47.250;11.332;2023-03-04T00:24:32;26.55;;;14.95;;
75508;SDS011;64214;47.250;11.332;2023-03-04T00:24:43;26.25;;;14.50;;
75508;SDS011;64214;47.250;11.332;2023-03-04T00:24:54;25.35;;;14.30;;
75508;SDS011;64214;47.250;11.332;2023-03-04T00:25:06;25.08;;;14.68;;
75508;SDS011;64214;47.250;11.332;2023-03-04T00:25:17;26.98;;;15.27;;
75508;SDS011;64214;47.250;11.332;2023-03-04T00:25:28;27.17;;;15.48;;
75508;SDS011;64214;47.250;11.332;2023-03-04T00:25:39;26.98;;;15.32;;
75508;SDS011;64214;47.250;11.332;2023-03-04T00:25:50;28.23;;;15.20;;
75508;SDS011;64214;47.250;11.332;2023-03-04T00:26:01;27.52;;;15.68;;
75508;SDS011;64214;47.250;11.332;2023-03-04T00:26:13;27.15;;;15.75;;
75508;SDS011;64214;47.250;11.332;2023-03-04T00:26:26;26.98;;;15.88;;
75508;SDS011;64214;47.250;11.332;2023-03-04T00:26:38;27.48;;;15.90;;
75508;SDS011;64214;47.250;11.332;2023-03-04T00:26:49;26.52;;;15.88;;
75508;SDS011;64214;47.250;11.332;2023-03-04T00:27:00;25.73;;;15.32;;
75508;SDS011;64214;47.250;11.332;2023-03-04T00:27:12;25.33;;;15.00;;
75508;SDS011;64214;47.250;11.332;2023-03-04T00:27:23;24.45;;;14.60;;
75508;SDS011;64214;47.250;11.332;2023-03-04T00:27:34;24.25;;;14.38;;
75508;SDS011;64214;47.250;11.332;2023-03-04T00:27:46;23.27;;;13.90;;
75508;SDS011;64214;47.250;11.332;2023-03-04T00:27:57;25.17;;;14.43;;
75508;SDS011;64214;47.250;11.332;2023-03-04T00:28:12;27.63;;;15.23;;
75508;SDS011;64214;47.250;11.332;2023-03-04T00:28:23;28.45;;;14.90;;
75508;SDS011;64214;47.250;11.332;2023-03-04T00:28:35;26.10;;;14.55;;
75508;SDS011;64214;47.250;11.332;2023-03-04T00:28:46;23.27;;;14.05;;
75508;SDS011;64214;47.250;11.332;2023-03-04T00:28:57;24.67;;;14.68;;
75508;SDS011;64214;47.250;11.332;2023-03-04T00:29:08;23.83;;;13.85;;
75508;SDS011;64214;47.250;11.332;2023-03-04T00:29:19;23.85;;;14.13;;
75508;SDS011;64214;47.250;11.332;2023-03-04T00:29:31;24.27;;;14.38;;
75508;SDS011;64214;47.250;11.332;2023-03-04T00:29:42;24.73;;;14.60;;
75508;SDS011;64214;47.250;11.332;2023-03-04T00:29:54;25.02;;;14.48;;
75508;SDS011;64214;47.250;11.332;2023-03-04T00:30:07;25.35;;;14.38;;
75508;SDS011;64214;47.250;11.332;2023-03-04T00:30:18;26.10;;;14.55;;
75508;SDS011;64214;47.250;11.332;2023-03-04T00:30:30;24.67;;;14.75;;
75508;SDS011;64214;47.250;11.332;2023-03-04T00:30:41;23.30;;;14.43;;
75508;SDS011;64214;47.250;11.332;2023-03-04T00:30:52;24.08;;;14.40;;
75508;SDS011;64214;47.250;11.332;2023-03-04T00:31:03;23.38;;;14.05;;
75508;SDS011;64214;47.250;11.332;2023-03-04T00:31:14;24.63;;;14.10;;
75508;SDS011;64214;47.250;11.332;2023-03-04T00:31:26;24.25;;;13.57;;
75508;SDS011;64214;47.250;11.332;2023-03-04T00:31:37;22.65;;;13.23;;
75508;SDS011;64214;47.250;11.332;2023-03-04T00:31:48;21.75;;;13.10;;
75508;SDS011;64214;47.250;11.332;2023-03-04T00:31:59;23.65;;;13.55;;
75508;SDS011;64214;47.250;11.332;2023-03-04T00:32:10;23.63;;;13.48;;
75508;SDS011;64214;47.250;11.332;2023-03-04T00:32:22;24.08;;;13.90;;
75508;SDS011;64214;47.250;11.332;2023-03-04T00:32:33;21.60;;;13.60;;
75508;SDS011;64214;47.250;11.332;2023-03-04T00:32:44;24.05;;;13.50;;
75508;SDS011;64214;47.250;11.332;2023-03-04T00:32:55;25.40;;;13.60;;
75508;SDS011;64214;47.250;11.332;2023-03-04T00:33:07;25.77;;;13.95;;
75508;SDS011;64214;47.250;11.332;2023-03-04T00:33:19;23.33;;;13.95;;
75508;SDS011;64214;47.250;11.332;2023-03-04T00:33:30;23.65;;;14.27;;
75508;SDS011;64214;47.250;11.332;2023-03-04T00:33:41;25.02;;;14.93;;
75508;SDS011;64214;47.250;11.332;2023-03-04T00:33:53;27.50;;;15.87;;
75508;SDS011;64214;47.250;11.332;2023-03-04T00:34:05;27.15;;;15.77;;
75508;SDS011;64214;47.250;11.332;2023-03-04T00:34:16;25.58;;;15.30;;
75508;SDS011;64214;47.250;11.332;2023-03-04T00:34:27;24.70;;;14.60;;
75508;SDS011;64214;47.250;11.332;2023-03-04T00:34:38;25.08;;;14.77;;
75508;SDS011;64214;47.250;11.332;2023-03-04T00:34:50;26.13;;;14.88;;
75508;SDS011;64214;47.250;11.332;2023-03-04T00:35:01;25.95;;;14.25;;
75508;SDS011;64214;47.250;11.332;2023-03-04T00:35:12;25.70;;;14.35;;
75508;SDS011;64214;47.250;11.332;2023-03-04T00:35:23;25.45;;;14.48;;
75508;SDS011;64214;47.250;11.332;2023-03-04T00:35:35;25.88;;;14.68;;
75508;SDS011;64214;47.250;11.332;2023-03-04T00:35:46;27.52;;;14.95;;
75508;SDS011;64214;47.250;11.332;2023-03-04T00:35:57;27.83;;;15.02;;
75508;SDS011;64214;47.250;11.332;2023-03-04T00:36:09;25.92;;;14.70;;
75508;SDS011;64214;47.250;11.332;2023-03-04T00:36:20;25.13;;;14.63;;
75508;SDS011;64214;47.250;11.332;2023-03-04T00:36:31;27.15;;;15.13;;
75508;SDS011;64214;47.250;11.332;2023-03-04T00:36:42;26.73;;;15.07;;
75508;SDS011;64214;47.250;11.332;2023-03-04T00:36:54;25.17;;;14.88;;
75508;SDS011;64214;47.250;11.332;2023-03-04T00:37:10;27.02;;;15.07;;
75508;SDS011;64214;47.250;11.332;2023-03-04T00:37:21;27.80;;;15.05;;
75508;SDS011;64214;47.250;11.332;2023-03-04T00:37:34;26.38;;;14.82;;
75508;SDS011;64214;47.250;11.332;2023-03-04T00:37:45;26.13;;;14.55;;
75508;SDS011;64214;47.250;11.332;2023-03-04T00:37:56;25.67;;;14.95;;
75508;SDS011;64214;47.250;11.332;2023-03-04T00:38:07;25.92;;;15.13;;
75508;SDS011;64214;47.250;11.332;2023-03-04T00:38:19;24.45;;;14.80;;
75508;SDS011;64214;47.250;11.332;2023-03-04T00:38:30;24.23;;;14.30;;
75508;SDS011;64214;47.250;11.332;2023-03-04T00:38:41;24.05;;;14.30;;
75508;SDS011;64214;47.250;11.332;2023-03-04T00:38:53;23.95;;;14.48;;
75508;SDS011;64214;47.250;11.332;2023-03-04T00:39:04;24.25;;;14.52;;
75508;SDS011;64214;47.250;11.332;2023-03-04T00:39:15;24.80;;;14.40;;
75508;SDS011;64214;47.250;11.332;2023-03-04T00:39:26;26.40;;;14.35;;
75508;SDS011;64214;47.250;11.332;2023-03-04T00:39:38;25.90;;;14.43;;
75508;SDS011;64214;47.250;11.332;2023-03-04T00:39:50;25.43;;;14.43;;
75508;SDS011;64214;47.250;11.332;2023-03-04T00:40:01;24.93;;;14.20;;
75508;SDS011;64214;47.250;11.332;2023-03-04T00:40:12;24.08;;;14.32;;
75508;SDS011;64214;47.250;11.332;2023-03-04T00:40:23;25.15;;;15.18;;
75508;SDS011;64214;47.250;11.332;2023-03-04T00:40:34;26.13;;;15.27;;
75508;SDS011;64214;47.250;11.332;2023-03-04T00:40:46;25.92;;;14.52;;
75508;SDS011;64214;47.250;11.332;2023-03-04T00:40:57;24.95;;;14.25;;
75508;SDS011;64214;47.250;11.332;2023-03-04T00:41:08;24.50;;;14.23;;
75508;SDS011;64214;47.250;11.332;2023-03-04T00:41:19;24.40;;;14.05;;
75508;SDS011;64214;47.250;11.332;2023-03-04T00:41:30;25.02;;;14.02;;
75508;SDS011;64214;47.250;11.332;2023-03-04T00:41:41;25.25;;;14.02;;
75508;SDS011;64214;47.250;11.332;2023-03-04T00:41:52;26.40;;;14.82;;
75508;SDS011;64214;47.250;11.332;2023-03-04T00:42:04;27.27;;;15.52;;
75508;SDS011;64214;47.250;11.332;2023-03-04T00:42:15;27.13;;;15.43;;
75508;SDS011;64214;47.250;11.332;2023-03-04T00:42:26;26.02;;;15.20;;
75508;SDS011;64214;47.250;11.332;2023-03-04T00:42:37;24.58;;;14.43;;
75508;SDS011;64214;47.250;11.332;2023-03-04T00:42:48;24.00;;;14.43;;
75508;SDS011;64214;47.250;11.332;2023-03-04T00:42:59;24.38;;;14.48;;
75508;SDS011;64214;47.250;11.332;2023-03-04T00:43:10;24.50;;;14.65;;
75508;SDS011;64214;47.250;11.332;2023-03-04T00:43:21;25.75;;;14.32;;
75508;SDS011;64214;47.250;11.332;2023-03-04T00:43:33;25.55;;;14.40;;
75508;SDS011;64214;47.250;11.332;2023-03-04T00:43:44;25.15;;;14.43;;
75508;SDS011;64214;47.250;11.332;2023-03-04T00:43:55;25.25;;;14.23;;
75508;SDS011;64214;47.250;11.332;2023-03-04T00:44:06;24.58;;;13.98;;
75508;SDS011;64214;47.250;11.332;2023-03-04T00:44:17;25.02;;;13.90;;
75508;SDS011;64214;47.250;11.332;2023-03-04T00:44:28;26.67;;;14.25;;
75508;SDS011;64214;47.250;11.332;2023-03-04T00:44:40;27.50;;;14.38;;
75508;SDS011;64214;47.250;11.332;2023-03-04T00:44:51;26.98;;;14.32;;
75508;SDS011;64214;47.250;11.332;2023-03-04T00:45:02;26.20;;;14.10;;
75508;SDS011;64214;47.250;11.332;2023-03-04T00:45:14;26.02;;;14.02;;
75508;SDS011;64214;47.250;11.332;2023-03-04T00:45:25;25.77;;;14.02;;
75508;SDS011;64214;47.250;11.332;2023-03-04T00:45:37;25.40;;;14.00;;
75508;SDS011;64214;47.250;11.332;2023-03-04T00:45:48;25.33;;;14.02;;
75508;SDS011;64214;47.250;11.332;2023-03-04T00:45:59;25.35;;;14.32;;
75508;SDS011;64214;47.250;11.332;2023-03-04T00:46:10;25.23;;;14.77;;
75508;SDS011;64214;47.250;11.332;2023-03-04T00:46:21;24.67;;;14.23;;
75508;SDS011;64214;47.250;11.332;2023-03-04T00:46:32;24.40;;;14.18;;
75508;SDS011;64214;47.250;11.332;2023-03-04T00:46:43;23.58;;;13.93;;
75508;SDS011;64214;47.250;11.332;2023-03-04T00:46:54;24.10;;;14.43;;
75508;SDS011;64214;47.250;11.332;2023-03-04T00:47:06;23.95;;;14.63;;
75508;SDS011;64214;47.250;11.332;2023-03-04T00:47:17;23.52;;;14.32;;
75508;SDS011;64214;47.250;11.332;2023-03-04T00:47:28;23.38;;;14.23;;
75508;SDS011;64214;47.250;11.332;2023-03-04T00:47:39;25.23;;;14.55;;
75508;SDS011;64214;47.250;11.332;2023-03-04T00:47:51;25.88;;;14.68;;
75508;SDS011;64214;47.250;11.332;2023-03-04T00:48:02;26.40;;;14.32;;
75508;SDS011;64214;47.250;11.332;2023-03-04T00:48:13;25.08;;;14.10;;
75508;SDS011;64214;47.250;11.332;2023-03-04T00:48:26;24.67;;;13.63;;
75508;SDS011;64214;47.250;11.332;2023-03-04T00:48:37;25.20;;;14.00;;
75508;SDS011;64214;47.250;11.332;2023-03-04T00:48:48;27.50;;;14.50;;
75508;SDS011;64214;47.250;11.332;2023-03-04T00:48:59;28.17;;;14.75;;
75508;SDS011;64214;47.250;11.332;2023-03-04T00:49:11;27.50;;;13.95;;
75508;SDS011;64214;47.250;11.332;2023-03-04T00:49:22;25.38;;;13.70;;
75508;SDS011;64214;47.250;11.332;2023-03-04T00:49:34;26.17;;;13.48;;
75508;SDS011;64214;47.250;11.332;2023-03-04T00:49:45;27.10;;;13.73;;
75508;SDS011;64214;47.250;11.332;2023-03-04T00:49:56;27.48;;;14.07;;
75508;SDS011;64214;47.250;11.332;2023-03-04T00:50:07;25.95;;;14.38;;
75508;SDS011;64214;47.250;11.332;2023-03-04T00:50:19;25.63;;;14.38;;
75508;SDS011;64214;47.250;11.332;2023-03-04T00:50:30;27.38;;;14.98;;
75508;SDS011;64214;47.250;11.332;2023-03-04T00:50:42;26.52;;;14.82;;
75508;SDS011;64214;47.250;11.332;2023-03-04T00:50:53;26.13;;;14.18;;
75508;SDS011;64214;47.250;11.332;2023-03-04T00:51:04;24.52;;;14.13;;
75508;SDS011;64214;47.250;11.332;2023-03-04T00:51:16;26.45;;;14.40;;
75508;SDS011;64214;47.250;11.332;2023-03-04T00:51:28;26.02;;;14.70;;
75508;SDS011;64214;47.250;11.332;2023-03-04T00:51:39;23.88;;;13.95;;
75508;SDS011;64214;47.250;11.332;2023-03-04T00:51:50;25.00;;;14.48;;
75508;SDS011;64214;47.250;11.332;2023-03-04T00:52:01;25.33;;;14.70;;
75508;SDS011;64214;47.250;11.332;2023-03-04T00:52:12;27.10;;;15.48;;
75508;SDS011;64214;47.250;11.332;2023-03-04T00:52:24;25.77;;;15.10;;
75508;SDS011;64214;47.250;11.332;2023-03-04T00:52:35;25.80;;;14.85;;
75508;SDS011;64214;47.250;11.332;2023-03-04T00:52:49;24.50;;;14.32;;
75508;SDS011;64214;47.250;11.332;2023-03-04T00:53:00;24.42;;;14.50;;
75508;SDS011;64214;47.250;11.332;2023-03-04T00:53:11;23.88;;;14.43;;
75508;SDS011;64214;47.250;11.332;2023-03-04T00:53:22;25.90;;;14.73;;
75508;SDS011;64214;47.250;11.332;2023-03-04T00:53:34;26.17;;;14.75;;
75508;SDS011;64214;47.250;11.332;2023-03-04T00:53:45;25.58;;;14.35;;
75508;SDS011;64214;47.250;11.332;2023-03-04T00:53:57;24.17;;;13.95;;
75508;SDS011;64214;47.250;11.332;2023-03-04T00:54:08;23.40;;;13.93;;
75508;SDS011;64214;47.250;11.332;2023-03-04T00:54:19;24.23;;;14.32;;
75508;SDS011;64214;47.250;11.332;2023-03-04T00:54:31;26.33;;;15.10;;
75508;SDS011;64214;47.250;11.332;2023-03-04T00:54:42;27.50;;;15.27;;
75508;SDS011;64214;47.250;11.332;2023-03-04T00:54:53;25.88;;;14.73;;
75508;SDS011;64214;47.250;11.332;2023-03-04T00:55:05;25.23;;;14.75;;
75508;SDS011;64214;47.250;11.332;2023-03-04T00:55:17;25.30;;;14.93;;
75508;SDS011;64214;47.250;11.332;2023-03-04T00:55:29;25.80;;;15.23;;
75508;SDS011;64214;47.250;11.332;2023-03-04T00:55:40;25.25;;;15.15;;
75508;SDS011;64214;47.250;11.332;2023-03-04T00:55:51;26.95;;;15.63;;
75508;SDS011;64214;47.250;11.332;2023-03-04T00:56:02;26.23;;;15.48;;
75508;SDS011;64214;47.250;11.332;2023-03-04T00:56:15;24.15;;;14.63;;
75508;SDS011;64214;47.250;11.332;2023-03-04T00:56:26;23.27;;;14.50;;
75508;SDS011;64214;47.250;11.332;2023-03-04T00:56:37;24.40;;;15.00;;
75508;SDS011;64214;47.250;11.332;2023-03-04T00:56:49;24.90;;;15.23;;
75508;SDS011;64214;47.250;11.332;2023-03-04T00:57:00;25.73;;;15.88;;
75508;SDS011;64214;47.250;11.332;2023-03-04T00:57:11;26.37;;;15.47;;
75508;SDS011;64214;47.250;11.332;2023-03-04T00:57:22;26.90;;;15.10;;
75508;SDS011;64214;47.250;11.332;2023-03-04T00:57:33;27.52;;;15.18;;
75508;SDS011;64214;47.250;11.332;2023-03-04T00:57:45;25.75;;;14.93;;
75508;SDS011;64214;47.250;11.332;2023-03-04T00:57:56;25.50;;;14.85;;
75508;SDS011;64214;47.250;11.332;2023-03-04T00:58:07;26.27;;;14.90;;
75508;SDS011;64214;47.250;11.332;2023-03-04T00:58:19;27.20;;;15.32;;
75508;SDS011;64214;47.250;11.332;2023-03-04T00:58:30;25.50;;;14.82;;
75508;SDS011;64214;47.250;11.332;2023-03-04T00:58:41;23.92;;;14.27;;
75508;SDS011;64214;47.250;11.332;2023-03-04T00:58:52;23.67;;;13.90;;
75508;SDS011;64214;47.250;11.332;2023-03-04T00:59:03;25.23;;;14.48;;
75508;SDS011;64214;47.250;11.332;2023-03-04T00:59:16;25.80;;;15.17;;
75508;SDS011;64214;47.250;11.332;2023-03-04T00:59:27;26.30;;;14.98;;
75508;SDS011;64214;47.250;11.332;2023-03-04T00:59:40;26.15;;;14.70;;
75508;SDS011;64214;47.250;11.332;2023-03-04T00:59:53;26.30;;;14.65;;
75508;SDS011;64214;47.250;11.332;2023-03-04T01:00:04;26.55;;;15.38;;
75508;SDS011;64214;47.250;11.332;2023-03-04T01:00:16;27.27;;;16.00;;
75508;SDS011;64214;47.250;11.332;2023-03-04T01:00:27;25.73;;;15.35;;
75508;SDS011;64214;47.250;11.332;2023-03-04T01:00:39;24.90;;;14.55;;
75508;SDS011;64214;47.250;11.332;2023-03-04T01:00:50;25.58;;;14.23;;
75508;SDS011;64214;47.250;11.332;2023-03-04T01:01:02;26.13;;;14.15;;
75508;SDS011;64214;47.250;11.332;2023-03-04T01:01:13;25.23;;;14.55;;
75508;SDS011;64214;47.250;11.332;2023-03-04T01:01:24;26.23;;;15.00;;
75508;SDS011;64214;47.250;11.332;2023-03-04T01:01:36;26.85;;;14.70;;
75508;SDS011;64214;47.250;11.332;2023-03-04T01:01:47;29.30;;;14.73;;
75508;SDS011;64214;47.250;11.332;2023-03-04T01:01:58;28.95;;;15.27;;
75508;SDS011;64214;47.250;11.332;2023-03-04T01:02:09;29.05;;;16.05;;
75508;SDS011;64214;47.250;11.332;2023-03-04T01:02:20;27.13;;;15.88;;
75508;SDS011;64214;47.250;11.332;2023-03-04T01:02:31;27.63;;;15.73;;
75508;SDS011;64214;47.250;11.332;2023-03-04T01:02:42;26.80;;;15.27;;
75508;SDS011;64214;47.250;11.332;2023-03-04T01:02:54;27.17;;;15.52;;
75508;SDS011;64214;47.250;11.332;2023-03-04T01:03:05;26.17;;;15.32;;
75508;SDS011;64214;47.250;11.332;2023-03-04T01:03:16;27.50;;;15.70;;
75508;SDS011;64214;47.250;11.332;2023-03-04T01:03:27;27.52;;;15.07;;
75508;SDS011;64214;47.250;11.332;2023-03-04T01:03:41;27.08;;;15.15;;
75508;SDS011;64214;47.250;11.332;2023-03-04T01:03:52;25.55;;;15.25;;
75508;SDS011;64214;47.250;11.332;2023-03-04T01:04:03;25.60;;;15.38;;
75508;SDS011;64214;47.250;11.332;2023-03-04T01:04:14;26.60;;;15.48;;
75508;SDS011;64214;47.250;11.332;2023-03-04T01:04:25;27.15;;;15.65;;
75508;SDS011;64214;47.250;11.332;2023-03-04T01:04:37;27.42;;;15.48;;
75508;SDS011;64214;47.250;11.332;2023-03-04T01:04:48;26.55;;;15.63;;
75508;SDS011;64214;47.250;11.332;2023-03-04T01:04:59;26.42;;;15.82;;
75508;SDS011;64214;47.250;11.332;2023-03-04T01:05:10;25.70;;;15.77;;
75508;SDS011;64214;47.250;11.332;2023-03-04T01:05:22;26.02;;;15.60;;
75508;SDS011;64214;47.250;11.332;2023-03-04T01:05:33;26.35;;;15.55;;